createdAt,value
2018-12-06T00:01:15.222Z,3.67
2018-12-06T00:03:44.525Z,3.90
2018-12-06T00:06:13.667Z,4.33
2018-12-06T00:08:42.777Z,4.00
2018-12-06T00:11:11.923Z,4.17
2018-12-06T00:13:41.107Z,4.20
2018-12-06T00:16:10.268Z,3.83
2018-12-06T00:18:39.564Z,3.60
2018-12-06T00:21:08.903Z,3.70
2018-12-06T00:23:38.031Z,3.77
2018-12-06T00:26:07.167Z,3.27
2018-12-06T00:28:37.785Z,3.80
2018-12-06T00:31:07.129Z,3.30
2018-12-06T00:33:36.246Z,3.47
2018-12-06T00:36:05.391Z,3.23
2018-12-06T00:38:34.842Z,3.00
2018-12-06T00:41:04.026Z,2.77
2018-12-06T00:43:33.246Z,3.00
2018-12-06T00:46:02.395Z,3.03
2018-12-06T00:48:31.541Z,3.63
2018-12-06T00:51:00.781Z,2.77
2018-12-06T00:53:30.419Z,2.90
2018-12-06T00:55:59.519Z,2.90
2018-12-06T00:58:28.712Z,3.37
2018-12-06T01:00:57.912Z,3.20
2018-12-06T01:03:27.110Z,3.73
2018-12-06T01:05:56.393Z,3.07
2018-12-06T01:08:25.517Z,3.20
2018-12-06T01:10:54.710Z,3.07
2018-12-06T01:13:23.851Z,3.13
2018-12-06T01:15:53.024Z,3.50
2018-12-06T01:18:22.150Z,3.07
2018-12-06T01:20:51.408Z,2.77
2018-12-06T01:23:20.669Z,3.30
2018-12-06T01:25:49.970Z,3.27
2018-12-06T01:28:19.108Z,3.60
2018-12-06T01:30:48.258Z,3.40
2018-12-06T01:33:17.404Z,3.50
2018-12-06T01:35:46.512Z,3.47
2018-12-06T01:38:15.744Z,3.10
2018-12-06T01:40:44.985Z,3.27
2018-12-06T01:43:14.147Z,3.93
2018-12-06T01:45:43.336Z,3.63
2018-12-06T01:48:12.778Z,2.87
2018-12-06T01:50:41.970Z,3.07
2018-12-06T01:53:11.071Z,2.90
2018-12-06T01:55:40.261Z,3.40
2018-12-06T01:58:09.437Z,3.13
2018-12-06T02:00:38.865Z,3.10
2018-12-06T02:03:07.997Z,3.20
2018-12-06T02:05:37.131Z,3.23
2018-12-06T02:08:06.320Z,3.53
2018-12-06T02:10:35.700Z,3.27
2018-12-06T02:13:04.857Z,3.77
2018-12-06T02:15:34.049Z,4.33
2018-12-06T02:18:03.149Z,4.23
2018-12-06T02:20:32.309Z,4.60
2018-12-06T02:23:01.535Z,4.70
2018-12-06T02:25:30.659Z,3.87
2018-12-06T02:27:59.769Z,4.13
2018-12-06T02:30:28.995Z,4.43
2018-12-06T02:32:58.339Z,4.53
2018-12-06T02:35:27.514Z,4.97
2018-12-06T02:37:56.683Z,5.23
2018-12-06T02:40:25.805Z,5.03
2018-12-06T02:42:55.021Z,5.20
2018-12-06T02:45:24.329Z,5.03
2018-12-06T02:47:53.522Z,5.17
2018-12-06T02:50:22.696Z,4.50
2018-12-06T02:52:51.918Z,4.63
2018-12-06T02:55:21.185Z,5.13
2018-12-06T02:57:50.294Z,4.90
2018-12-06T03:00:19.492Z,4.77
2018-12-06T03:02:49.126Z,4.73
2018-12-06T03:05:18.260Z,4.73
2018-12-06T03:07:47.402Z,4.97
2018-12-06T03:10:16.707Z,4.63
2018-12-06T03:12:45.873Z,4.87
2018-12-06T03:15:15.172Z,5.07
2018-12-06T03:17:44.409Z,5.00
2018-12-06T03:20:13.607Z,5.50
2018-12-06T03:22:42.800Z,4.90
2018-12-06T03:25:12.000Z,5.77
2018-12-06T03:27:41.153Z,6.43
2018-12-06T03:30:10.357Z,5.17
2018-12-06T03:32:39.566Z,5.13
2018-12-06T03:35:08.889Z,5.57
2018-12-06T03:37:38.057Z,5.57
2018-12-06T03:40:07.353Z,5.43
2018-12-06T03:42:36.523Z,5.20
2018-12-06T03:45:05.817Z,5.70
2018-12-06T03:47:34.963Z,6.33
2018-12-06T03:50:05.071Z,6.40
2018-12-06T03:52:34.299Z,5.30
2018-12-06T03:55:03.710Z,6.33
2018-12-06T03:57:32.902Z,5.70
2018-12-06T04:00:02.101Z,6.93
2018-12-06T04:02:31.258Z,6.27
2018-12-06T04:05:00.740Z,6.93
2018-12-06T04:07:29.883Z,6.70
2018-12-06T04:09:59.095Z,7.13
2018-12-06T04:12:28.251Z,7.97
2018-12-06T04:14:57.507Z,7.20
2018-12-06T04:17:26.693Z,7.50
2018-12-06T04:19:55.837Z,7.27
2018-12-06T04:22:25.082Z,7.60
2018-12-06T04:24:54.341Z,7.03
2018-12-06T04:27:23.555Z,7.00
2018-12-06T04:29:52.868Z,7.00
2018-12-06T04:32:22.055Z,6.97
2018-12-06T04:34:51.222Z,6.77
2018-12-06T04:37:20.485Z,6.90
2018-12-06T04:39:49.650Z,8.10
2018-12-06T04:42:18.880Z,7.63
2018-12-06T04:44:48.179Z,8.33
2018-12-06T04:47:17.318Z,8.87
2018-12-06T04:49:46.439Z,8.07
2018-12-06T04:52:15.599Z,8.20
2018-12-06T04:54:44.856Z,8.30
2018-12-06T04:57:14.215Z,8.93
2018-12-06T04:59:43.425Z,9.07
2018-12-06T05:02:12.888Z,8.80
2018-12-06T05:04:42.125Z,9.57
2018-12-06T05:07:11.289Z,10.47
2018-12-06T05:09:40.452Z,10.47
2018-12-06T05:12:09.602Z,11.30
2018-12-06T05:14:38.744Z,11.27
2018-12-06T05:17:07.922Z,11.87
2018-12-06T05:19:37.083Z,10.63
2018-12-06T05:22:06.254Z,12.30
2018-12-06T05:24:35.480Z,12.30
2018-12-06T05:27:04.951Z,13.00
2018-12-06T05:29:34.089Z,13.77
2018-12-06T05:32:03.434Z,13.17
2018-12-06T05:34:32.619Z,15.40
2018-12-06T05:37:02.363Z,14.30
2018-12-06T05:39:31.510Z,13.70
2018-12-06T05:42:00.771Z,13.00
2018-12-06T05:44:29.931Z,13.90
2018-12-06T05:46:59.227Z,14.17
2018-12-06T05:49:28.623Z,15.10
2018-12-06T05:51:57.827Z,14.17
2018-12-06T05:54:27.048Z,15.70
2018-12-06T05:56:56.323Z,15.93
2018-12-06T05:59:25.493Z,15.30
2018-12-06T06:01:54.877Z,14.50
2018-12-06T06:04:24.017Z,14.20
2018-12-06T06:06:53.660Z,14.87
2018-12-06T06:09:22.881Z,15.47
2018-12-06T06:11:52.012Z,16.53
2018-12-06T06:14:21.172Z,16.30
2018-12-06T06:16:50.431Z,15.67
2018-12-06T06:19:19.549Z,15.93
2018-12-06T06:21:48.752Z,15.77
2018-12-06T06:24:17.909Z,15.50
2018-12-06T06:26:47.113Z,15.43
2018-12-06T06:29:16.344Z,15.07
2018-12-06T06:31:45.501Z,15.27
2018-12-06T06:34:14.761Z,15.53
2018-12-06T06:36:43.976Z,15.13
2018-12-06T06:39:13.228Z,16.10
2018-12-06T06:41:42.389Z,14.37
2018-12-06T06:44:11.575Z,13.03
2018-12-06T06:46:40.740Z,12.70
2018-12-06T06:49:13.743Z,13.37
2018-12-06T06:51:41.197Z,13.53
2018-12-06T06:54:10.357Z,13.43
2018-12-06T06:56:39.502Z,14.33
2018-12-06T06:59:08.660Z,13.07
2018-12-06T07:01:37.832Z,12.37
2018-12-06T07:04:11.143Z,12.07
2018-12-06T07:06:40.289Z,12.47
2018-12-06T07:09:09.509Z,12.27
2018-12-06T07:11:38.690Z,13.40
2018-12-06T07:14:07.889Z,13.00
2018-12-06T07:16:37.446Z,12.17
2018-12-06T07:19:06.986Z,11.63
2018-12-06T07:21:36.138Z,11.57
2018-12-06T07:24:05.367Z,12.20
2018-12-06T07:26:34.643Z,12.60
2018-12-06T07:29:03.960Z,13.00
2018-12-06T07:31:33.157Z,12.60
2018-12-06T07:34:02.335Z,12.67
2018-12-06T07:36:31.511Z,13.03
2018-12-06T07:39:00.791Z,12.90
2018-12-06T07:41:29.947Z,12.77
2018-12-06T07:43:59.148Z,11.97
2018-12-06T07:46:28.746Z,12.23
2018-12-06T07:48:57.866Z,12.33
2018-12-06T07:51:32.515Z,12.60
2018-12-06T07:54:01.696Z,11.97
2018-12-06T07:56:30.975Z,14.00
2018-12-06T07:59:00.151Z,12.10
2018-12-06T08:01:29.283Z,11.67
2018-12-06T08:03:58.555Z,10.63
2018-12-06T08:06:27.841Z,11.00
2018-12-06T08:08:56.989Z,11.73
2018-12-06T08:11:26.162Z,13.03
2018-12-06T08:13:55.459Z,11.83
2018-12-06T08:16:24.602Z,12.33
2018-12-06T08:18:54.063Z,11.40
2018-12-06T08:21:23.533Z,12.17
2018-12-06T08:23:52.767Z,11.97
2018-12-06T08:26:21.925Z,11.40
2018-12-06T08:28:51.165Z,11.30
2018-12-06T08:31:20.357Z,12.97
2018-12-06T08:33:49.657Z,11.73
2018-12-06T08:36:18.924Z,11.67
2018-12-06T08:38:48.235Z,11.50
2018-12-06T08:41:17.423Z,10.60
2018-12-06T08:43:46.732Z,11.27
2018-12-06T08:46:15.898Z,10.00
2018-12-06T08:48:45.945Z,11.00
2018-12-06T08:51:15.134Z,12.27
2018-12-06T08:53:44.358Z,11.67
2018-12-06T08:56:13.534Z,12.07
2018-12-06T08:58:42.671Z,11.47
2018-12-06T09:01:11.935Z,12.63
2018-12-06T09:03:41.161Z,13.33
2018-12-06T09:06:10.460Z,13.03
2018-12-06T09:08:39.636Z,12.30
2018-12-06T09:11:08.808Z,12.27
2018-12-06T09:13:38.704Z,11.40
2018-12-06T09:16:08.161Z,12.53
2018-12-06T09:18:37.365Z,12.40
2018-12-06T09:21:06.669Z,13.07
2018-12-06T09:23:35.940Z,13.90
2018-12-06T09:26:05.152Z,12.87
2018-12-06T09:28:36.002Z,13.37
2018-12-06T09:31:09.092Z,14.40
2018-12-06T09:33:46.180Z,13.77
2018-12-06T09:36:15.372Z,14.03
2018-12-06T09:38:44.569Z,14.07
2018-12-06T09:41:13.689Z,14.20
2018-12-06T09:43:42.864Z,14.20
2018-12-06T09:46:12.046Z,13.90
2018-12-06T09:48:41.341Z,13.67
2018-12-06T09:51:10.578Z,13.87
2018-12-06T09:53:39.759Z,15.60
2018-12-06T09:56:08.912Z,14.33
2018-12-06T09:58:38.140Z,14.03
2018-12-06T10:01:08.102Z,13.97
2018-12-06T10:03:37.368Z,13.60
2018-12-06T10:06:06.673Z,13.93
2018-12-06T10:08:35.824Z,14.07
2018-12-06T10:11:05.064Z,13.97
2018-12-06T10:13:34.372Z,14.63
2018-12-06T10:16:03.675Z,13.33
2018-12-06T10:18:32.965Z,12.97
2018-12-06T10:21:02.366Z,14.17
2018-12-06T10:23:32.587Z,14.17
2018-12-06T10:26:01.789Z,15.00
2018-12-06T10:28:30.958Z,13.87
2018-12-06T10:31:00.130Z,14.87
2018-12-06T10:33:29.389Z,15.10
2018-12-06T10:36:36.266Z,16.30
2018-12-06T10:39:07.306Z,14.10
2018-12-06T10:41:36.558Z,15.03
2018-12-06T10:44:05.708Z,15.17
2018-12-06T10:46:34.861Z,15.53
2018-12-06T10:49:04.051Z,15.83
2018-12-06T10:51:40.736Z,17.67
2018-12-06T10:54:09.969Z,18.87
2018-12-06T10:56:40.672Z,18.17
2018-12-06T10:59:09.875Z,19.97
2018-12-06T11:01:44.791Z,19.07
2018-12-06T11:04:13.991Z,20.00
2018-12-06T11:06:43.115Z,19.47
2018-12-06T11:09:12.396Z,19.67
2018-12-06T11:11:41.796Z,19.00
2018-12-06T11:14:10.936Z,19.33
2018-12-06T11:16:40.223Z,18.80
2018-12-06T11:19:09.422Z,18.63
2018-12-06T11:21:38.600Z,17.37
2018-12-06T11:24:07.778Z,17.03
2018-12-06T11:26:36.963Z,17.13
2018-12-06T11:29:06.171Z,18.03
2018-12-06T11:31:35.764Z,17.10
2018-12-06T11:34:04.980Z,16.77
2018-12-06T11:36:34.218Z,17.07
2018-12-06T11:39:05.519Z,16.03
2018-12-06T11:41:43.848Z,16.63
2018-12-06T11:44:13.077Z,17.30
2018-12-06T11:46:42.256Z,16.90
2018-12-06T11:49:11.380Z,18.17
2018-12-06T11:51:40.630Z,17.50
2018-12-06T11:54:09.974Z,19.23
2018-12-06T11:56:39.936Z,18.17
2018-12-06T11:59:09.176Z,18.80
2018-12-06T12:01:38.377Z,18.67
2018-12-06T12:04:07.516Z,18.67
2018-12-06T12:06:36.773Z,17.77
2018-12-06T12:09:07.201Z,17.50
2018-12-06T12:11:36.400Z,17.73
2018-12-06T12:14:05.688Z,17.87
2018-12-06T12:16:34.894Z,17.80
2018-12-06T12:19:04.434Z,20.27
2018-12-06T12:21:33.700Z,18.63
2018-12-06T12:24:03.304Z,18.00
2018-12-06T12:26:32.919Z,17.63
2018-12-06T12:29:02.215Z,17.50
2018-12-06T12:31:31.467Z,17.27
2018-12-06T12:34:00.620Z,18.43
2018-12-06T12:36:29.785Z,17.80
2018-12-06T12:38:58.933Z,17.73
2018-12-06T12:41:32.082Z,17.00
2018-12-06T12:44:01.302Z,17.37
2018-12-06T12:46:31.286Z,17.37
2018-12-06T12:49:00.614Z,17.37
2018-12-06T12:51:29.921Z,16.93
2018-12-06T12:53:59.118Z,16.47
2018-12-06T12:56:28.251Z,16.27
2018-12-06T12:58:57.466Z,15.90
2018-12-06T13:01:26.651Z,15.50
2018-12-06T13:03:55.914Z,15.90
2018-12-06T13:06:25.037Z,14.47
2018-12-06T13:08:54.376Z,14.33
2018-12-06T13:11:23.671Z,15.23
2018-12-06T13:13:53.055Z,14.93
2018-12-06T13:16:22.423Z,14.50
2018-12-06T13:18:51.817Z,14.13
2018-12-06T13:21:21.041Z,12.23
2018-12-06T13:23:50.535Z,11.73
2018-12-06T13:26:20.049Z,11.97
2018-12-06T13:28:49.542Z,11.17
2018-12-06T13:31:18.939Z,10.23
2018-12-06T13:33:48.249Z,8.77
2018-12-06T13:36:17.693Z,8.83
2018-12-06T13:38:46.880Z,8.70
2018-12-06T13:41:16.564Z,8.50
2018-12-06T13:43:45.745Z,8.97
2018-12-06T13:46:15.046Z,8.37
2018-12-06T13:48:44.419Z,8.33
2018-12-06T13:51:13.545Z,7.93
2018-12-06T13:53:42.952Z,7.93
2018-12-06T13:56:14.157Z,8.73
2018-12-06T13:58:43.594Z,7.97
2018-12-06T14:01:13.115Z,8.67
2018-12-06T14:03:42.631Z,8.80
2018-12-06T14:06:11.819Z,8.43
2018-12-06T14:08:41.013Z,8.60
2018-12-06T14:11:10.390Z,7.67
2018-12-06T14:13:39.826Z,8.13
2018-12-06T14:16:10.628Z,9.03
2018-12-06T14:18:40.324Z,8.03
2018-12-06T14:21:09.678Z,8.60
2018-12-06T14:23:39.099Z,8.53
2018-12-06T14:26:08.364Z,8.93
2018-12-06T14:28:44.436Z,8.33
2018-12-06T14:31:16.046Z,8.83
2018-12-06T14:33:45.355Z,8.80
2018-12-06T14:36:15.742Z,8.33
2018-12-06T14:38:44.854Z,8.10
2018-12-06T14:41:14.031Z,7.90
2018-12-06T14:43:43.193Z,7.67
2018-12-06T14:46:12.495Z,7.83
2018-12-06T14:48:41.646Z,7.93
2018-12-06T14:51:10.875Z,7.87
2018-12-06T14:53:40.189Z,8.30
2018-12-06T14:56:09.313Z,7.30
2018-12-06T14:58:38.421Z,8.13
2018-12-06T15:01:07.789Z,8.83
2018-12-06T15:03:36.979Z,7.23
2018-12-06T15:06:06.146Z,7.83
2018-12-06T15:08:35.343Z,5.30
2018-12-06T15:11:04.540Z,6.30
2018-12-06T15:13:33.772Z,6.30
2018-12-06T15:16:03.079Z,5.80
2018-12-06T15:18:32.369Z,4.83
2018-12-06T15:21:01.488Z,4.33
2018-12-06T15:23:30.669Z,4.57
2018-12-06T15:25:59.799Z,4.40
2018-12-06T15:28:29.007Z,4.13
2018-12-06T15:30:58.621Z,4.10
2018-12-06T15:33:27.875Z,4.10
2018-12-06T15:35:57.382Z,4.00
2018-12-06T15:38:26.907Z,3.87
2018-12-06T15:40:56.187Z,4.10
2018-12-06T15:43:25.292Z,4.20
2018-12-06T15:45:54.509Z,4.23
2018-12-06T15:48:23.666Z,4.30
2018-12-06T15:50:52.800Z,4.50
2018-12-06T15:53:21.968Z,4.33
2018-12-06T15:55:51.138Z,4.77
2018-12-06T15:58:20.373Z,4.90
2018-12-06T16:00:49.585Z,4.87
2018-12-06T16:03:18.760Z,4.77
2018-12-06T16:05:48.530Z,4.83
2018-12-06T16:08:18.082Z,5.20
2018-12-06T16:10:47.665Z,5.00
2018-12-06T16:13:16.912Z,5.20
2018-12-06T16:15:46.099Z,5.50
2018-12-06T16:18:15.293Z,5.83
2018-12-06T16:20:44.494Z,5.27
2018-12-06T16:23:13.697Z,5.60
2018-12-06T16:25:42.891Z,5.53
2018-12-06T16:28:12.034Z,5.03
2018-12-06T16:30:41.289Z,5.20
2018-12-06T16:33:10.696Z,5.77
2018-12-06T16:35:39.992Z,5.43
2018-12-06T16:38:09.187Z,6.10
2018-12-06T16:40:38.491Z,6.50
2018-12-06T16:43:07.791Z,5.80
2018-12-06T16:45:37.214Z,6.10
2018-12-06T16:48:07.314Z,5.90
2018-12-06T16:50:36.902Z,6.83
2018-12-06T16:53:06.221Z,5.60
2018-12-06T16:55:38.381Z,6.03
2018-12-06T16:58:07.889Z,6.90
2018-12-06T17:00:37.199Z,6.37
2018-12-06T17:03:06.459Z,6.63
2018-12-06T17:05:35.599Z,7.03
2018-12-06T17:08:04.855Z,8.97
2018-12-06T17:10:34.923Z,6.67
2018-12-06T17:13:04.205Z,7.37
2018-12-06T17:15:33.405Z,7.43
2018-12-06T17:18:02.601Z,7.33
2018-12-06T17:20:31.906Z,7.30
2018-12-06T17:23:01.104Z,7.90
2018-12-06T17:25:30.434Z,7.43
2018-12-06T17:27:59.699Z,8.70
2018-12-06T17:30:28.931Z,7.80
2018-12-06T17:32:58.200Z,8.87
2018-12-06T17:35:27.495Z,9.10
2018-12-06T17:37:56.740Z,8.53
2018-12-06T17:40:25.984Z,9.60
2018-12-06T17:42:55.434Z,9.27
2018-12-06T17:45:24.621Z,8.93
2018-12-06T17:47:53.935Z,9.90
2018-12-06T17:50:23.144Z,9.97
2018-12-06T17:52:52.494Z,9.97
2018-12-06T17:55:21.706Z,14.23
2018-12-06T17:57:50.887Z,13.90
2018-12-06T18:00:20.009Z,9.80
2018-12-06T18:02:49.678Z,11.07
2018-12-06T18:05:19.463Z,9.40
2018-12-06T18:07:48.669Z,10.03
2018-12-06T18:10:18.228Z,8.70
2018-12-06T18:12:47.530Z,9.60
2018-12-06T18:15:16.840Z,9.40
2018-12-06T18:17:46.122Z,9.93
2018-12-06T18:20:15.429Z,9.63
2018-12-06T18:22:44.651Z,9.40
2018-12-06T18:25:13.905Z,9.80
2018-12-06T18:27:43.124Z,10.33
2018-12-06T18:30:12.337Z,10.80
2018-12-06T18:32:41.622Z,12.50
2018-12-06T18:35:11.001Z,10.20
2018-12-06T18:37:40.219Z,10.60
2018-12-06T18:40:09.415Z,10.80
2018-12-06T18:42:38.723Z,10.53
2018-12-06T18:45:13.913Z,10.17
2018-12-06T18:47:43.133Z,10.43
2018-12-06T18:50:12.787Z,11.17
2018-12-06T18:52:42.275Z,11.13
2018-12-06T18:55:11.477Z,11.40
2018-12-06T18:57:40.874Z,12.17
2018-12-06T19:00:10.534Z,10.60
2018-12-06T19:02:39.954Z,12.00
2018-12-06T19:05:11.316Z,11.93
2018-12-06T19:07:40.455Z,12.23
2018-12-06T19:10:09.819Z,10.97
2018-12-06T19:12:40.270Z,11.03
2018-12-06T19:15:09.578Z,10.20
2018-12-06T19:17:38.999Z,10.47
2018-12-06T19:20:08.577Z,10.03
2018-12-06T19:22:38.664Z,10.33
2018-12-06T19:25:10.841Z,10.20
2018-12-06T19:27:40.165Z,11.07
2018-12-06T19:30:09.771Z,10.40
2018-12-06T19:32:39.142Z,11.03
2018-12-06T19:35:08.592Z,10.60
2018-12-06T19:37:37.977Z,10.27
2018-12-06T19:40:08.368Z,10.80
2018-12-06T19:42:38.991Z,10.20
2018-12-06T19:45:08.729Z,11.27
2018-12-06T19:47:38.163Z,10.20
2018-12-06T19:50:07.659Z,10.50
2018-12-06T19:52:36.961Z,11.57
2018-12-06T19:55:06.564Z,10.93
2018-12-06T19:57:38.227Z,11.40
2018-12-06T20:00:08.507Z,10.70
2018-12-06T20:02:38.471Z,11.37
2018-12-06T20:05:08.017Z,10.50
2018-12-06T20:07:37.370Z,10.67
2018-12-06T20:10:07.572Z,11.80
2018-12-06T20:12:36.794Z,11.50
2018-12-06T20:15:06.344Z,11.23
2018-12-06T20:17:35.874Z,11.10
2018-12-06T20:20:11.965Z,10.50
2018-12-06T20:22:41.257Z,10.97
2018-12-06T20:25:10.556Z,10.47
2018-12-06T20:27:39.836Z,11.23
2018-12-06T20:30:09.258Z,11.57
2018-12-06T20:32:38.754Z,10.63
2018-12-06T20:35:08.044Z,11.30
2018-12-06T20:37:39.544Z,10.73
2018-12-06T20:40:12.734Z,11.70
2018-12-06T20:42:42.297Z,11.40
2018-12-06T20:45:11.621Z,11.10
2018-12-06T20:47:40.946Z,11.43
2018-12-06T20:50:10.205Z,10.97
2018-12-06T20:52:39.376Z,11.07
2018-12-06T20:55:13.192Z,10.60
2018-12-06T20:57:42.650Z,10.50
2018-12-06T21:00:12.038Z,10.50
2018-12-06T21:02:41.418Z,10.40
2018-12-06T21:05:10.687Z,10.63
2018-12-06T21:07:39.897Z,9.63
2018-12-06T21:10:09.186Z,10.47
2018-12-06T21:12:38.417Z,9.47
2018-12-06T21:15:07.768Z,10.07
2018-12-06T21:17:37.216Z,9.53
2018-12-06T21:20:06.902Z,9.43
2018-12-06T21:22:36.185Z,8.93
2018-12-06T21:25:05.674Z,8.30
2018-12-06T21:27:35.318Z,7.70
2018-12-06T21:30:05.298Z,7.30
2018-12-06T21:32:34.632Z,7.93
2018-12-06T21:35:03.933Z,8.40
2018-12-06T21:37:33.237Z,8.33
2018-12-06T21:40:02.534Z,7.07
2018-12-06T21:42:31.729Z,7.73
2018-12-06T21:45:00.903Z,7.60
2018-12-06T21:47:30.079Z,7.30
2018-12-06T21:49:59.222Z,7.47
2018-12-06T21:52:28.420Z,7.40
2018-12-06T21:54:57.890Z,7.33
2018-12-06T21:57:27.099Z,7.67
2018-12-06T21:59:56.284Z,7.83
2018-12-06T22:02:26.062Z,7.00
2018-12-06T22:04:55.226Z,7.47
2018-12-06T22:07:24.371Z,7.40
2018-12-06T22:09:53.623Z,6.53
2018-12-06T22:12:22.829Z,6.77
2018-12-06T22:14:52.111Z,7.03
2018-12-06T22:17:21.556Z,6.40
2018-12-06T22:19:50.828Z,6.57
2018-12-06T22:22:20.001Z,7.07
2018-12-06T22:24:49.200Z,6.53
2018-12-06T22:27:18.402Z,6.60
2018-12-06T22:29:47.726Z,6.63
2018-12-06T22:32:16.839Z,6.90
2018-12-06T22:34:46.163Z,6.43
2018-12-06T22:37:15.476Z,5.80
2018-12-06T22:39:44.920Z,6.10
2018-12-06T22:42:14.060Z,6.10
2018-12-06T22:44:43.342Z,5.13
2018-12-06T22:47:12.648Z,5.97
2018-12-06T22:49:41.775Z,5.60
2018-12-06T22:52:10.914Z,5.73
2018-12-06T22:54:40.047Z,5.50
2018-12-06T22:57:09.210Z,5.17
2018-12-06T22:59:38.378Z,5.93
2018-12-06T23:02:07.556Z,5.20
2018-12-06T23:04:36.667Z,5.40
2018-12-06T23:07:06.009Z,5.17
2018-12-06T23:09:35.156Z,5.47
2018-12-06T23:12:04.362Z,4.93
2018-12-06T23:14:33.498Z,5.30
2018-12-06T23:17:02.714Z,5.40
2018-12-06T23:19:31.941Z,5.77
2018-12-06T23:22:01.105Z,5.27
2018-12-06T23:24:30.472Z,5.40
2018-12-06T23:26:59.743Z,5.53
2018-12-06T23:29:28.872Z,5.20
2018-12-06T23:31:58.176Z,5.40
2018-12-06T23:34:27.303Z,4.70
2018-12-06T23:36:56.452Z,4.90
2018-12-06T23:39:25.616Z,5.50
2018-12-06T23:41:54.967Z,5.10
2018-12-06T23:44:24.108Z,5.00
2018-12-06T23:46:53.464Z,4.53
2018-12-06T23:49:22.876Z,4.73
2018-12-06T23:51:52.073Z,4.60
2018-12-06T23:54:21.366Z,4.70
2018-12-06T23:56:50.481Z,5.10
2018-12-06T23:59:19.619Z,4.73
